createdAt,value
2023-07-17T00:01:12.674Z,100.00
2023-07-17T00:06:16.318Z,100.00
2023-07-17T00:11:20.404Z,100.00
2023-07-17T00:16:23.914Z,100.00
2023-07-17T00:21:26.429Z,100.00
2023-07-17T00:26:31.671Z,100.00
2023-07-17T00:31:34.794Z,100.00
2023-07-17T00:36:37.341Z,100.00
2023-07-17T00:41:40.486Z,100.00
2023-07-17T00:46:42.983Z,100.00
2023-07-17T00:51:45.929Z,100.00
2023-07-17T00:56:49.061Z,100.00
2023-07-17T01:01:53.370Z,100.00
2023-07-17T01:06:56.046Z,100.00
2023-07-17T01:11:58.673Z,100.00
2023-07-17T01:17:02.408Z,100.00
2023-07-17T01:22:21.756Z,100.00
2023-07-17T01:27:24.561Z,100.00
2023-07-17T01:32:27.775Z,100.00
2023-07-17T01:37:30.494Z,100.00
2023-07-17T01:42:33.127Z,100.00
2023-07-17T01:47:35.931Z,100.00
2023-07-17T01:52:38.689Z,100.00
2023-07-17T01:57:41.812Z,100.00
2023-07-17T02:02:45.312Z,100.00
2023-07-17T02:07:48.545Z,100.00
2023-07-17T02:12:51.126Z,100.00
2023-07-17T02:17:53.686Z,100.00
2023-07-17T02:22:56.287Z,100.00
2023-07-17T02:27:58.906Z,100.00
2023-07-17T02:33:02.260Z,100.00
2023-07-17T02:38:04.921Z,100.00
2023-07-17T02:43:09.337Z,100.00
2023-07-17T02:48:12.549Z,100.00
2023-07-17T02:53:15.145Z,100.00
2023-07-17T02:58:18.822Z,100.00
2023-07-17T03:03:21.554Z,100.00
2023-07-17T03:08:24.716Z,100.00
2023-07-17T03:13:28.114Z,100.00
2023-07-17T03:18:30.707Z,100.00
2023-07-17T03:23:34.147Z,100.00
2023-07-17T03:28:36.814Z,100.00
2023-07-17T03:33:39.987Z,100.00
2023-07-17T03:38:43.349Z,100.00
2023-07-17T03:43:46.137Z,100.00
2023-07-17T03:48:49.661Z,100.00
2023-07-17T03:53:52.616Z,100.00
2023-07-17T03:58:57.641Z,100.00
2023-07-17T04:04:00.917Z,100.00
2023-07-17T04:09:04.738Z,100.00
2023-07-17T04:14:07.469Z,100.00
2023-07-17T04:19:10.784Z,100.00
2023-07-17T04:24:13.542Z,100.00
2023-07-17T04:29:18.123Z,100.00
2023-07-17T04:34:26.700Z,100.00
2023-07-17T04:39:32.636Z,100.00
2023-07-17T04:44:39.071Z,100.00
2023-07-17T04:49:45.792Z,100.00
2023-07-17T04:54:48.965Z,100.00
2023-07-17T04:59:55.418Z,100.00
2023-07-17T05:04:59.115Z,100.00
2023-07-17T05:10:02.683Z,100.00
2023-07-17T05:15:06.352Z,100.00
2023-07-17T05:20:11.262Z,100.00
2023-07-17T05:25:14.276Z,100.00
2023-07-17T05:30:17.737Z,100.00
2023-07-17T05:35:20.740Z,100.00
2023-07-17T05:40:32.381Z,100.00
2023-07-17T05:45:52.230Z,100.00
2023-07-17T05:51:12.458Z,100.00
2023-07-17T05:56:31.908Z,100.00
2023-07-17T06:01:39.119Z,100.00
2023-07-17T06:06:42.284Z,100.00
2023-07-17T06:11:45.050Z,100.00
2023-07-17T06:16:47.801Z,100.00
2023-07-17T06:21:51.196Z,99.75
2023-07-17T06:26:57.000Z,95.76
2023-07-17T06:32:00.235Z,91.39
2023-07-17T06:37:05.472Z,88.53
2023-07-17T06:42:11.681Z,87.57
2023-07-17T06:47:25.581Z,82.45
2023-07-17T06:52:39.942Z,79.88
2023-07-17T06:57:42.647Z,77.11
2023-07-17T07:02:45.861Z,73.40
2023-07-17T07:07:48.878Z,71.00
2023-07-17T07:12:52.170Z,70.27
2023-07-17T07:17:54.982Z,65.85
2023-07-17T07:22:58.576Z,64.17
2023-07-17T07:28:02.808Z,63.08
2023-07-17T07:33:06.427Z,61.86
2023-07-17T07:38:09.933Z,60.30
2023-07-17T07:43:13.380Z,58.56
2023-07-17T07:48:16.984Z,56.52
2023-07-17T07:53:20.279Z,54.02
2023-07-17T07:58:23.196Z,51.77
2023-07-17T08:03:26.543Z,49.06
2023-07-17T08:08:29.534Z,48.15
2023-07-17T08:13:32.849Z,48.08
2023-07-17T08:18:35.582Z,48.11
2023-07-17T08:23:38.913Z,48.04
2023-07-17T08:28:41.730Z,46.96
2023-07-17T08:33:44.679Z,46.09
2023-07-17T08:38:47.821Z,45.97
2023-07-17T08:43:51.745Z,45.65
2023-07-17T08:48:56.120Z,45.10
2023-07-17T08:54:13.533Z,44.46
2023-07-17T08:59:23.944Z,43.46
2023-07-17T09:04:30.451Z,42.19
2023-07-17T09:09:33.309Z,42.28
2023-07-17T09:14:37.218Z,42.58
2023-07-17T09:19:40.506Z,42.96
2023-07-17T09:24:43.936Z,44.32
2023-07-17T09:29:47.053Z,45.35
2023-07-17T09:35:03.687Z,46.58
2023-07-17T09:40:13.262Z,46.16
2023-07-17T09:45:16.557Z,45.75
2023-07-17T09:50:21.299Z,45.54
2023-07-17T09:55:33.330Z,45.99
2023-07-17T10:00:42.071Z,46.46
2023-07-17T10:05:46.539Z,45.95
2023-07-17T10:10:53.108Z,45.51
2023-07-17T10:16:02.399Z,44.39
2023-07-17T10:21:57.265Z,44.40
2023-07-17T10:27:02.722Z,44.58
2023-07-17T10:32:12.024Z,44.33
2023-07-17T10:37:33.629Z,45.01
2023-07-17T10:42:37.007Z,45.15
2023-07-17T10:47:42.800Z,44.85
2023-07-17T10:52:45.836Z,44.63
2023-07-17T10:57:49.751Z,44.60
2023-07-17T11:03:00.087Z,43.86
2023-07-17T11:08:08.131Z,43.83
2023-07-17T11:13:13.849Z,44.81
2023-07-17T11:18:26.904Z,45.11
2023-07-17T11:23:29.864Z,45.28
2023-07-17T11:28:35.694Z,45.94
2023-07-17T11:33:38.601Z,46.62
2023-07-17T11:38:46.182Z,47.26
2023-07-17T11:43:58.451Z,47.93
2023-07-17T11:49:01.454Z,47.48
2023-07-17T11:54:04.969Z,46.74
2023-07-17T11:59:17.870Z,45.14
2023-07-17T12:04:26.646Z,45.43
2023-07-17T12:09:29.349Z,45.93
2023-07-17T12:14:33.062Z,47.11
2023-07-17T12:19:36.532Z,48.25
2023-07-17T12:24:39.549Z,47.99
2023-07-17T12:29:42.732Z,48.36
2023-07-17T12:39:53.667Z,48.30
2023-07-17T12:44:59.965Z,47.21
2023-07-17T12:50:03.151Z,46.91
2023-07-17T12:55:07.138Z,45.96
2023-07-17T13:00:11.403Z,45.00
2023-07-17T13:05:16.067Z,44.16
2023-07-17T13:10:19.389Z,43.72
2023-07-17T13:15:24.220Z,43.35
2023-07-17T13:20:28.483Z,43.11
2023-07-17T13:25:32.686Z,42.56
2023-07-17T13:30:35.987Z,42.14
2023-07-17T13:35:39.001Z,42.32
2023-07-17T13:40:41.742Z,41.71
2023-07-17T13:45:45.461Z,40.92
2023-07-17T13:50:49.573Z,40.55
2023-07-17T13:55:52.510Z,40.37
2023-07-17T14:00:55.820Z,41.12
2023-07-17T14:05:58.721Z,41.14
2023-07-17T14:11:03.302Z,41.84
2023-07-17T14:16:10.078Z,42.07
2023-07-17T14:21:13.006Z,42.46
2023-07-17T14:26:16.444Z,42.19
2023-07-17T14:31:19.455Z,42.99
2023-07-17T14:36:22.585Z,43.04
2023-07-17T14:41:25.684Z,43.54
2023-07-17T14:46:30.325Z,44.34
2023-07-17T14:51:35.467Z,44.37
2023-07-17T14:56:38.126Z,44.57
2023-07-17T15:01:41.949Z,44.72
2023-07-17T15:06:44.848Z,45.50
2023-07-17T15:11:49.704Z,46.15
2023-07-17T15:16:52.648Z,46.96
2023-07-17T15:21:56.272Z,47.81
2023-07-17T15:26:58.822Z,48.09
2023-07-17T15:32:02.157Z,48.17
2023-07-17T15:37:05.492Z,49.44
2023-07-17T15:42:08.648Z,54.87
2023-07-17T15:47:11.733Z,60.07
2023-07-17T15:52:15.004Z,62.78
2023-07-17T15:57:17.710Z,65.72
2023-07-17T16:02:21.263Z,69.71
2023-07-17T16:07:24.449Z,71.72
2023-07-17T16:12:28.517Z,73.04
2023-07-17T16:18:06.848Z,74.67
2023-07-17T16:29:09.937Z,81.08
2023-07-17T16:34:13.997Z,83.48
2023-07-17T16:39:19.292Z,85.63
2023-07-17T16:44:22.235Z,88.41
2023-07-17T16:49:27.146Z,91.50
2023-07-17T16:55:17.088Z,92.88
2023-07-17T17:00:23.452Z,94.30
2023-07-17T17:05:26.347Z,96.15
2023-07-17T17:10:29.502Z,98.13
2023-07-17T17:15:33.078Z,98.28
2023-07-17T17:20:36.645Z,98.62
2023-07-17T17:25:43.345Z,98.77
2023-07-17T17:30:49.758Z,99.64
2023-07-17T17:35:52.553Z,100.00
2023-07-17T17:40:57.810Z,100.00
2023-07-17T17:46:03.150Z,100.00
2023-07-17T17:51:06.090Z,100.00
2023-07-17T17:56:09.150Z,100.00
2023-07-17T18:01:14.597Z,100.00
2023-07-17T18:06:17.330Z,100.00
2023-07-17T18:11:21.156Z,100.00
2023-07-17T18:16:25.904Z,100.00
2023-07-17T18:21:31.536Z,100.00
2023-07-17T18:26:36.747Z,100.00
2023-07-17T18:31:39.755Z,100.00
2023-07-17T18:36:42.886Z,100.00
2023-07-17T18:41:46.074Z,100.00
2023-07-17T18:46:50.040Z,100.00
2023-07-17T18:51:53.585Z,100.00
2023-07-17T18:56:56.289Z,100.00
2023-07-17T19:01:59.156Z,100.00
2023-07-17T19:07:02.702Z,100.00
2023-07-17T19:12:07.832Z,100.00
2023-07-17T19:17:11.661Z,100.00
2023-07-17T19:22:14.441Z,100.00
2023-07-17T19:27:17.498Z,100.00
2023-07-17T19:32:25.882Z,100.00
2023-07-17T19:37:28.723Z,100.00
2023-07-17T19:42:32.492Z,100.00
2023-07-17T19:47:35.319Z,100.00
2023-07-17T19:52:38.719Z,100.00
2023-07-17T19:57:41.806Z,100.00
2023-07-17T20:03:09.939Z,100.00
2023-07-17T20:08:12.684Z,100.00
2023-07-17T20:13:16.661Z,100.00
2023-07-17T20:18:19.601Z,100.00
2023-07-17T20:23:22.562Z,100.00
2023-07-17T20:28:25.370Z,100.00
2023-07-17T20:33:29.178Z,100.00
2023-07-17T20:38:32.172Z,100.00
2023-07-17T20:43:34.734Z,100.00
2023-07-17T20:48:37.975Z,100.00
2023-07-17T20:53:42.411Z,100.00
2023-07-17T20:58:45.843Z,100.00
2023-07-17T21:03:53.075Z,100.00
2023-07-17T21:08:57.054Z,100.00
2023-07-17T21:14:00.784Z,100.00
2023-07-17T21:19:03.445Z,100.00
2023-07-17T21:24:06.583Z,100.00
2023-07-17T21:29:09.996Z,100.00
2023-07-17T21:34:12.813Z,100.00
2023-07-17T21:39:16.025Z,100.00
2023-07-17T21:44:19.676Z,100.00
2023-07-17T21:49:22.322Z,100.00
2023-07-17T21:54:25.938Z,100.00
2023-07-17T21:59:29.457Z,100.00
2023-07-17T22:04:33.810Z,100.00
2023-07-17T22:09:37.185Z,100.00
2023-07-17T22:14:40.067Z,100.00
2023-07-17T22:19:43.296Z,100.00
2023-07-17T22:24:45.799Z,100.00
2023-07-17T22:29:49.134Z,100.00
2023-07-17T22:34:53.662Z,100.00
2023-07-17T22:39:56.203Z,100.00
2023-07-17T22:44:58.700Z,100.00
2023-07-17T22:50:01.360Z,100.00
2023-07-17T22:55:07.618Z,100.00
2023-07-17T23:00:12.734Z,100.00
2023-07-17T23:05:15.992Z,100.00
2023-07-17T23:10:18.707Z,100.00
2023-07-17T23:15:21.392Z,100.00
2023-07-17T23:20:24.000Z,100.00
2023-07-17T23:25:26.658Z,100.00
2023-07-17T23:30:30.092Z,100.00
2023-07-17T23:35:33.074Z,100.00
2023-07-17T23:40:35.705Z,100.00
2023-07-17T23:45:38.371Z,100.00
2023-07-17T23:50:40.873Z,100.00
2023-07-17T23:55:44.171Z,100.00
